NFSM7: N Fork Spring River nr Purcell, MO

                                SHEF ID:       NFSM7     N Fork Spring River nr Purcell, MO
STATION TYPE:

STAGE RIV-FLOW
ft cfs
Ccp-Rev Ccp-Rev
(America/Chicago)
04/25 00:00 5.71 792
04/25 01:00 5.63 758
04/25 02:00 5.57 734
04/25 03:00 5.53 717
04/25 04:00 5.45 685
04/25 05:00 5.39 661
04/25 06:00 5.35 646
04/25 07:00 5.29 623
04/25 08:00 5.26 611
04/25 09:00 5.20 589
04/25 10:00 5.19 585
04/25 11:00 5.14 567
04/25 12:00 5.09 549
04/25 13:00 5.05 535
04/25 14:00 5.01 521
04/25 15:00 4.98 510
04/25 16:00 4.93 493
04/25 17:00 4.91 486
04/25 18:00 4.88 476
04/25 19:00 4.87 473
04/25 20:00 4.86 470
04/25 21:00 4.86 470
04/25 22:00 4.86 470
04/25 23:00 ---- ----
Data processed at Sun 26Apr2026 04:45 GMT

NOTICE: If you are parsing this page

Please convert to using our Data API. Starting early 2026 we will be migrating to: https://water.usace.army.mil with modern pages rendered in JavaScript. When this migration completes you will no longer be able to scrape this page! CWMSDataAPI (CDA)

Timeseries IDs (TSIDs)

TSIDs used from left to right in the data table
PURS.Stage.Inst.1Hour.0.Ccp-Rev
PURS.Flow.Inst.1Hour.0.Ccp-Rev

                            

All information presented herein is the property of the government of the United States of America and may be revised or deleted at any time without prior notice. Dissemination of this information without the expressed written consent of the Public Affairs Office, Tulsa District U.S. Army Corps of Engineers is strictly prohibited. These data are gathered electronically and, as presented, have NOT undergone any form of quality control. These data are NOT guaranteed to be valid or correct.